sensor_id;sensor_type;location;lat;lon;timestamp;P1;durP1;ratioP1;P2;durP2;ratioP2
7477;SDS011;3780;42.424;25.636;2022-08-07T00:00:43;7.97;;;6.82;;
7477;SDS011;3780;42.424;25.636;2022-08-07T00:03:09;6.93;;;6.22;;
7477;SDS011;3780;42.424;25.636;2022-08-07T00:05:35;7.70;;;6.38;;
7477;SDS011;3780;42.424;25.636;2022-08-07T00:08:01;10.43;;;6.43;;
7477;SDS011;3780;42.424;25.636;2022-08-07T00:10:28;10.65;;;6.70;;
7477;SDS011;3780;42.424;25.636;2022-08-07T00:12:55;10.00;;;6.68;;
7477;SDS011;3780;42.424;25.636;2022-08-07T00:15:21;8.75;;;5.88;;
7477;SDS011;3780;42.424;25.636;2022-08-07T00:17:46;8.18;;;6.55;;
7477;SDS011;3780;42.424;25.636;2022-08-07T00:20:12;7.63;;;6.45;;
7477;SDS011;3780;42.424;25.636;2022-08-07T00:22:37;8.10;;;6.28;;
7477;SDS011;3780;42.424;25.636;2022-08-07T00:25:04;7.82;;;6.78;;
7477;SDS011;3780;42.424;25.636;2022-08-07T00:27:31;10.93;;;6.43;;
7477;SDS011;3780;42.424;25.636;2022-08-07T00:29:57;6.35;;;5.63;;
7477;SDS011;3780;42.424;25.636;2022-08-07T00:32:22;12.77;;;6.85;;
7477;SDS011;3780;42.424;25.636;2022-08-07T00:34:48;8.00;;;6.00;;
7477;SDS011;3780;42.424;25.636;2022-08-07T00:37:16;8.43;;;6.32;;
7477;SDS011;3780;42.424;25.636;2022-08-07T00:39:42;7.57;;;6.75;;
7477;SDS011;3780;42.424;25.636;2022-08-07T00:42:07;7.18;;;6.45;;
7477;SDS011;3780;42.424;25.636;2022-08-07T00:44:33;7.13;;;6.43;;
7477;SDS011;3780;42.424;25.636;2022-08-07T00:47:03;9.85;;;5.93;;
7477;SDS011;3780;42.424;25.636;2022-08-07T00:49:30;7.00;;;6.13;;
7477;SDS011;3780;42.424;25.636;2022-08-07T00:51:56;7.78;;;6.50;;
7477;SDS011;3780;42.424;25.636;2022-08-07T00:54:22;9.65;;;6.97;;
7477;SDS011;3780;42.424;25.636;2022-08-07T00:56:49;8.85;;;6.60;;
7477;SDS011;3780;42.424;25.636;2022-08-07T00:59:15;9.63;;;6.70;;
7477;SDS011;3780;42.424;25.636;2022-08-07T01:01:41;7.05;;;6.35;;
7477;SDS011;3780;42.424;25.636;2022-08-07T01:04:07;7.43;;;5.70;;
7477;SDS011;3780;42.424;25.636;2022-08-07T01:06:33;9.68;;;6.82;;
7477;SDS011;3780;42.424;25.636;2022-08-07T01:08:59;8.35;;;6.30;;
7477;SDS011;3780;42.424;25.636;2022-08-07T01:11:25;9.45;;;6.65;;
7477;SDS011;3780;42.424;25.636;2022-08-07T01:13:52;7.15;;;6.45;;
7477;SDS011;3780;42.424;25.636;2022-08-07T01:16:17;7.07;;;6.38;;
7477;SDS011;3780;42.424;25.636;2022-08-07T01:18:43;7.75;;;6.53;;
7477;SDS011;3780;42.424;25.636;2022-08-07T01:23:38;10.27;;;6.93;;
7477;SDS011;3780;42.424;25.636;2022-08-07T01:26:06;8.65;;;6.57;;
7477;SDS011;3780;42.424;25.636;2022-08-07T01:28:32;7.22;;;6.20;;
7477;SDS011;3780;42.424;25.636;2022-08-07T01:30:59;10.43;;;6.82;;
7477;SDS011;3780;42.424;25.636;2022-08-07T01:33:25;9.23;;;6.05;;
7477;SDS011;3780;42.424;25.636;2022-08-07T01:35:51;6.90;;;6.03;;
7477;SDS011;3780;42.424;25.636;2022-08-07T01:38:17;10.38;;;6.63;;
7477;SDS011;3780;42.424;25.636;2022-08-07T01:40:43;7.20;;;5.97;;
7477;SDS011;3780;42.424;25.636;2022-08-07T01:43:10;8.15;;;5.60;;
7477;SDS011;3780;42.424;25.636;2022-08-07T01:45:35;10.13;;;7.07;;
7477;SDS011;3780;42.424;25.636;2022-08-07T01:48:02;9.40;;;6.60;;
7477;SDS011;3780;42.424;25.636;2022-08-07T01:50:28;7.97;;;6.50;;
7477;SDS011;3780;42.424;25.636;2022-08-07T01:52:55;7.38;;;6.47;;
7477;SDS011;3780;42.424;25.636;2022-08-07T01:55:24;7.40;;;6.70;;
7477;SDS011;3780;42.424;25.636;2022-08-07T01:57:53;11.50;;;6.50;;
7477;SDS011;3780;42.424;25.636;2022-08-07T02:00:21;8.95;;;6.93;;
7477;SDS011;3780;42.424;25.636;2022-08-07T02:02:57;8.43;;;6.93;;
7477;SDS011;3780;42.424;25.636;2022-08-07T02:05:30;8.32;;;6.88;;
7477;SDS011;3780;42.424;25.636;2022-08-07T02:08:00;7.63;;;6.85;;
7477;SDS011;3780;42.424;25.636;2022-08-07T02:10:30;8.27;;;6.97;;
7477;SDS011;3780;42.424;25.636;2022-08-07T02:12:58;7.82;;;6.93;;
7477;SDS011;3780;42.424;25.636;2022-08-07T02:15:27;7.55;;;6.75;;
7477;SDS011;3780;42.424;25.636;2022-08-07T02:17:54;9.05;;;6.60;;
7477;SDS011;3780;42.424;25.636;2022-08-07T02:20:21;7.60;;;6.53;;
7477;SDS011;3780;42.424;25.636;2022-08-07T02:22:48;9.60;;;7.20;;
7477;SDS011;3780;42.424;25.636;2022-08-07T02:25:17;9.38;;;7.32;;
7477;SDS011;3780;42.424;25.636;2022-08-07T02:27:44;9.52;;;6.65;;
7477;SDS011;3780;42.424;25.636;2022-08-07T02:30:11;9.38;;;7.07;;
7477;SDS011;3780;42.424;25.636;2022-08-07T02:32:37;9.00;;;7.18;;
7477;SDS011;3780;42.424;25.636;2022-08-07T02:35:03;11.18;;;6.85;;
7477;SDS011;3780;42.424;25.636;2022-08-07T02:37:35;7.60;;;6.38;;
7477;SDS011;3780;42.424;25.636;2022-08-07T02:42:31;10.23;;;7.38;;
7477;SDS011;3780;42.424;25.636;2022-08-07T02:44:57;9.07;;;7.40;;
7477;SDS011;3780;42.424;25.636;2022-08-07T02:47:25;10.57;;;7.45;;
7477;SDS011;3780;42.424;25.636;2022-08-07T02:49:51;7.78;;;7.03;;
7477;SDS011;3780;42.424;25.636;2022-08-07T02:52:20;7.30;;;6.50;;
7477;SDS011;3780;42.424;25.636;2022-08-07T02:54:53;7.70;;;6.47;;
7477;SDS011;3780;42.424;25.636;2022-08-07T02:57:22;8.63;;;7.57;;
7477;SDS011;3780;42.424;25.636;2022-08-07T02:59:49;7.78;;;6.95;;
7477;SDS011;3780;42.424;25.636;2022-08-07T03:02:16;7.53;;;6.57;;
7477;SDS011;3780;42.424;25.636;2022-08-07T03:04:43;10.38;;;6.80;;
7477;SDS011;3780;42.424;25.636;2022-08-07T03:07:11;9.00;;;7.03;;
7477;SDS011;3780;42.424;25.636;2022-08-07T03:09:37;9.10;;;6.32;;
7477;SDS011;3780;42.424;25.636;2022-08-07T03:12:05;8.80;;;7.35;;
7477;SDS011;3780;42.424;25.636;2022-08-07T03:14:32;9.98;;;6.43;;
7477;SDS011;3780;42.424;25.636;2022-08-07T03:17:00;7.65;;;6.70;;
7477;SDS011;3780;42.424;25.636;2022-08-07T03:19:27;7.72;;;6.93;;
7477;SDS011;3780;42.424;25.636;2022-08-07T03:21:54;8.95;;;6.93;;
7477;SDS011;3780;42.424;25.636;2022-08-07T03:24:20;10.23;;;6.93;;
7477;SDS011;3780;42.424;25.636;2022-08-07T03:26:47;10.35;;;7.32;;
7477;SDS011;3780;42.424;25.636;2022-08-07T03:29:15;11.05;;;8.05;;
7477;SDS011;3780;42.424;25.636;2022-08-07T03:31:42;11.15;;;7.47;;
7477;SDS011;3780;42.424;25.636;2022-08-07T03:34:11;12.50;;;7.78;;
7477;SDS011;3780;42.424;25.636;2022-08-07T03:36:38;9.90;;;7.80;;
7477;SDS011;3780;42.424;25.636;2022-08-07T03:39:06;10.85;;;7.20;;
7477;SDS011;3780;42.424;25.636;2022-08-07T03:41:34;9.32;;;7.57;;
7477;SDS011;3780;42.424;25.636;2022-08-07T03:44:01;10.32;;;7.50;;
7477;SDS011;3780;42.424;25.636;2022-08-07T03:46:27;9.63;;;7.72;;
7477;SDS011;3780;42.424;25.636;2022-08-07T03:48:54;10.02;;;8.00;;
7477;SDS011;3780;42.424;25.636;2022-08-07T03:51:20;11.35;;;8.32;;
7477;SDS011;3780;42.424;25.636;2022-08-07T03:53:47;9.02;;;7.40;;
7477;SDS011;3780;42.424;25.636;2022-08-07T03:56:15;11.40;;;7.75;;
7477;SDS011;3780;42.424;25.636;2022-08-07T03:58:47;9.75;;;7.88;;
7477;SDS011;3780;42.424;25.636;2022-08-07T04:01:14;12.80;;;7.75;;
7477;SDS011;3780;42.424;25.636;2022-08-07T04:03:41;13.57;;;8.10;;
7477;SDS011;3780;42.424;25.636;2022-08-07T04:06:07;13.50;;;7.22;;
7477;SDS011;3780;42.424;25.636;2022-08-07T04:08:34;11.85;;;7.93;;
7477;SDS011;3780;42.424;25.636;2022-08-07T04:11:00;8.60;;;6.85;;
7477;SDS011;3780;42.424;25.636;2022-08-07T04:13:26;7.88;;;7.07;;
7477;SDS011;3780;42.424;25.636;2022-08-07T04:15:52;9.48;;;7.18;;
7477;SDS011;3780;42.424;25.636;2022-08-07T04:18:18;13.45;;;7.93;;
7477;SDS011;3780;42.424;25.636;2022-08-07T04:20:44;10.43;;;8.00;;
7477;SDS011;3780;42.424;25.636;2022-08-07T04:23:10;11.65;;;7.07;;
7477;SDS011;3780;42.424;25.636;2022-08-07T04:25:37;12.07;;;6.78;;
7477;SDS011;3780;42.424;25.636;2022-08-07T04:28:05;17.30;;;8.10;;
7477;SDS011;3780;42.424;25.636;2022-08-07T04:30:32;12.65;;;7.95;;
7477;SDS011;3780;42.424;25.636;2022-08-07T04:32:59;10.05;;;7.68;;
7477;SDS011;3780;42.424;25.636;2022-08-07T04:35:29;8.82;;;7.53;;
7477;SDS011;3780;42.424;25.636;2022-08-07T04:37:55;11.05;;;7.68;;
7477;SDS011;3780;42.424;25.636;2022-08-07T04:40:20;11.32;;;7.43;;
7477;SDS011;3780;42.424;25.636;2022-08-07T04:42:46;12.40;;;7.03;;
7477;SDS011;3780;42.424;25.636;2022-08-07T04:45:12;9.02;;;7.00;;
7477;SDS011;3780;42.424;25.636;2022-08-07T04:50:38;9.98;;;7.32;;
7477;SDS011;3780;42.424;25.636;2022-08-07T04:53:31;13.23;;;10.25;;
7477;SDS011;3780;42.424;25.636;2022-08-07T04:58:58;17.23;;;8.05;;
7477;SDS011;3780;42.424;25.636;2022-08-07T05:04:09;21.98;;;16.40;;
7477;SDS011;3780;42.424;25.636;2022-08-07T05:06:48;14.35;;;11.70;;
7477;SDS011;3780;42.424;25.636;2022-08-07T05:09:39;39.00;;;12.02;;
7477;SDS011;3780;42.424;25.636;2022-08-07T05:12:29;13.95;;;11.20;;
7477;SDS011;3780;42.424;25.636;2022-08-07T05:15:07;11.60;;;7.20;;
7477;SDS011;3780;42.424;25.636;2022-08-07T05:18:02;9.30;;;6.22;;
7477;SDS011;3780;42.424;25.636;2022-08-07T05:20:30;8.43;;;5.85;;
7477;SDS011;3780;42.424;25.636;2022-08-07T05:23:00;11.00;;;7.25;;
7477;SDS011;3780;42.424;25.636;2022-08-07T05:25:31;7.20;;;5.53;;
7477;SDS011;3780;42.424;25.636;2022-08-07T05:27:58;6.70;;;6.00;;
7477;SDS011;3780;42.424;25.636;2022-08-07T05:30:25;12.05;;;6.53;;
7477;SDS011;3780;42.424;25.636;2022-08-07T05:32:53;13.18;;;6.97;;
7477;SDS011;3780;42.424;25.636;2022-08-07T05:35:21;7.38;;;5.57;;
7477;SDS011;3780;42.424;25.636;2022-08-07T05:37:47;11.68;;;6.32;;
7477;SDS011;3780;42.424;25.636;2022-08-07T05:40:13;8.48;;;5.93;;
7477;SDS011;3780;42.424;25.636;2022-08-07T05:42:42;9.50;;;5.38;;
7477;SDS011;3780;42.424;25.636;2022-08-07T05:45:08;8.00;;;5.90;;
7477;SDS011;3780;42.424;25.636;2022-08-07T05:47:34;6.82;;;5.50;;
7477;SDS011;3780;42.424;25.636;2022-08-07T05:50:01;10.10;;;6.82;;
7477;SDS011;3780;42.424;25.636;2022-08-07T05:52:27;18.40;;;6.60;;
7477;SDS011;3780;42.424;25.636;2022-08-07T05:54:53;9.93;;;6.50;;
7477;SDS011;3780;42.424;25.636;2022-08-07T05:57:18;8.05;;;5.00;;
7477;SDS011;3780;42.424;25.636;2022-08-07T05:59:46;6.43;;;5.75;;
7477;SDS011;3780;42.424;25.636;2022-08-07T06:02:13;16.02;;;6.55;;
7477;SDS011;3780;42.424;25.636;2022-08-07T06:04:44;8.15;;;5.40;;
7477;SDS011;3780;42.424;25.636;2022-08-07T06:07:15;6.68;;;5.40;;
7477;SDS011;3780;42.424;25.636;2022-08-07T06:09:41;7.70;;;5.70;;
7477;SDS011;3780;42.424;25.636;2022-08-07T06:12:07;7.00;;;5.00;;
7477;SDS011;3780;42.424;25.636;2022-08-07T06:14:33;7.20;;;4.85;;
7477;SDS011;3780;42.424;25.636;2022-08-07T06:16:59;8.95;;;4.63;;
7477;SDS011;3780;42.424;25.636;2022-08-07T06:19:26;6.18;;;5.57;;
7477;SDS011;3780;42.424;25.636;2022-08-07T06:21:53;6.70;;;6.05;;
7477;SDS011;3780;42.424;25.636;2022-08-07T06:24:19;6.30;;;5.70;;
7477;SDS011;3780;42.424;25.636;2022-08-07T06:26:45;7.65;;;5.90;;
7477;SDS011;3780;42.424;25.636;2022-08-07T06:29:11;7.45;;;4.95;;
7477;SDS011;3780;42.424;25.636;2022-08-07T06:31:36;7.20;;;5.30;;
7477;SDS011;3780;42.424;25.636;2022-08-07T06:34:01;5.53;;;4.70;;
7477;SDS011;3780;42.424;25.636;2022-08-07T06:36:27;5.93;;;4.63;;
7477;SDS011;3780;42.424;25.636;2022-08-07T06:38:54;6.10;;;5.18;;
7477;SDS011;3780;42.424;25.636;2022-08-07T06:41:21;5.25;;;4.65;;
7477;SDS011;3780;42.424;25.636;2022-08-07T06:43:49;10.15;;;5.00;;
7477;SDS011;3780;42.424;25.636;2022-08-07T06:46:16;8.57;;;4.32;;
7477;SDS011;3780;42.424;25.636;2022-08-07T06:48:41;8.02;;;4.65;;
7477;SDS011;3780;42.424;25.636;2022-08-07T06:51:08;6.78;;;4.30;;
7477;SDS011;3780;42.424;25.636;2022-08-07T06:53:38;8.80;;;4.55;;
7477;SDS011;3780;42.424;25.636;2022-08-07T06:56:05;6.35;;;4.95;;
7477;SDS011;3780;42.424;25.636;2022-08-07T06:58:34;6.97;;;4.78;;
7477;SDS011;3780;42.424;25.636;2022-08-07T07:01:07;5.13;;;4.40;;
7477;SDS011;3780;42.424;25.636;2022-08-07T07:03:36;8.35;;;4.35;;
7477;SDS011;3780;42.424;25.636;2022-08-07T07:06:05;7.38;;;4.22;;
7477;SDS011;3780;42.424;25.636;2022-08-07T07:08:32;9.02;;;5.15;;
7477;SDS011;3780;42.424;25.636;2022-08-07T07:11:00;7.68;;;4.65;;
7477;SDS011;3780;42.424;25.636;2022-08-07T07:13:35;5.53;;;4.30;;
7477;SDS011;3780;42.424;25.636;2022-08-07T07:16:07;8.52;;;4.20;;
7477;SDS011;3780;42.424;25.636;2022-08-07T07:18:42;6.93;;;4.22;;
7477;SDS011;3780;42.424;25.636;2022-08-07T07:21:26;9.30;;;4.70;;
7477;SDS011;3780;42.424;25.636;2022-08-07T07:23:56;11.70;;;5.13;;
7477;SDS011;3780;42.424;25.636;2022-08-07T07:26:23;7.45;;;4.68;;
7477;SDS011;3780;42.424;25.636;2022-08-07T07:28:58;6.20;;;4.75;;
7477;SDS011;3780;42.424;25.636;2022-08-07T07:31:34;9.88;;;5.38;;
7477;SDS011;3780;42.424;25.636;2022-08-07T07:34:06;8.30;;;4.28;;
7477;SDS011;3780;42.424;25.636;2022-08-07T07:36:38;9.73;;;4.45;;
7477;SDS011;3780;42.424;25.636;2022-08-07T07:39:05;7.15;;;4.78;;
7477;SDS011;3780;42.424;25.636;2022-08-07T07:41:33;12.48;;;6.10;;
7477;SDS011;3780;42.424;25.636;2022-08-07T07:44:00;9.60;;;4.57;;
7477;SDS011;3780;42.424;25.636;2022-08-07T07:46:28;5.90;;;4.20;;
7477;SDS011;3780;42.424;25.636;2022-08-07T07:48:58;7.47;;;4.47;;
7477;SDS011;3780;42.424;25.636;2022-08-07T07:51:25;4.75;;;4.20;;
7477;SDS011;3780;42.424;25.636;2022-08-07T07:53:52;4.80;;;4.05;;
7477;SDS011;3780;42.424;25.636;2022-08-07T07:56:21;6.40;;;4.25;;
7477;SDS011;3780;42.424;25.636;2022-08-07T07:58:50;4.80;;;3.88;;
7477;SDS011;3780;42.424;25.636;2022-08-07T08:01:18;5.55;;;4.32;;
7477;SDS011;3780;42.424;25.636;2022-08-07T08:03:45;7.72;;;4.22;;
7477;SDS011;3780;42.424;25.636;2022-08-07T08:06:11;5.53;;;4.38;;
7477;SDS011;3780;42.424;25.636;2022-08-07T08:08:38;5.25;;;4.07;;
7477;SDS011;3780;42.424;25.636;2022-08-07T08:11:06;9.63;;;4.68;;
7477;SDS011;3780;42.424;25.636;2022-08-07T08:13:33;5.28;;;4.25;;
7477;SDS011;3780;42.424;25.636;2022-08-07T08:16:06;6.22;;;4.10;;
7477;SDS011;3780;42.424;25.636;2022-08-07T08:18:33;5.72;;;3.90;;
7477;SDS011;3780;42.424;25.636;2022-08-07T08:21:00;5.13;;;3.95;;
7477;SDS011;3780;42.424;25.636;2022-08-07T08:23:27;4.28;;;3.50;;
7477;SDS011;3780;42.424;25.636;2022-08-07T08:26:15;9.57;;;3.80;;
7477;SDS011;3780;42.424;25.636;2022-08-07T08:29:01;5.63;;;3.63;;
7477;SDS011;3780;42.424;25.636;2022-08-07T08:31:29;4.07;;;3.60;;
7477;SDS011;3780;42.424;25.636;2022-08-07T08:33:58;3.97;;;3.58;;
7477;SDS011;3780;42.424;25.636;2022-08-07T08:36:29;5.68;;;4.30;;
7477;SDS011;3780;42.424;25.636;2022-08-07T08:38:57;7.95;;;4.00;;
7477;SDS011;3780;42.424;25.636;2022-08-07T08:41:42;5.03;;;3.88;;
7477;SDS011;3780;42.424;25.636;2022-08-07T08:47:01;5.32;;;3.95;;
7477;SDS011;3780;42.424;25.636;2022-08-07T08:52:52;8.35;;;4.00;;
7477;SDS011;3780;42.424;25.636;2022-08-07T08:55:29;4.82;;;4.05;;
7477;SDS011;3780;42.424;25.636;2022-08-07T08:58:14;8.05;;;4.70;;
7477;SDS011;3780;42.424;25.636;2022-08-07T09:01:09;10.27;;;3.90;;
7477;SDS011;3780;42.424;25.636;2022-08-07T09:03:52;6.22;;;4.05;;
7477;SDS011;3780;42.424;25.636;2022-08-07T09:06:38;15.35;;;4.60;;
7477;SDS011;3780;42.424;25.636;2022-08-07T09:17:40;4.50;;;3.30;;
7477;SDS011;3780;42.424;25.636;2022-08-07T09:20:30;5.30;;;3.55;;
7477;SDS011;3780;42.424;25.636;2022-08-07T09:29:00;7.68;;;3.85;;
7477;SDS011;3780;42.424;25.636;2022-08-07T09:31:35;7.00;;;3.95;;
7477;SDS011;3780;42.424;25.636;2022-08-07T09:37:13;5.60;;;4.10;;
7477;SDS011;3780;42.424;25.636;2022-08-07T09:45:36;7.10;;;3.58;;
7477;SDS011;3780;42.424;25.636;2022-08-07T09:57:15;13.50;;;5.97;;
7477;SDS011;3780;42.424;25.636;2022-08-07T10:00:05;12.43;;;5.50;;
7477;SDS011;3780;42.424;25.636;2022-08-07T10:02:57;9.55;;;4.72;;
7477;SDS011;3780;42.424;25.636;2022-08-07T10:05:29;6.13;;;4.82;;
7477;SDS011;3780;42.424;25.636;2022-08-07T10:11:04;5.80;;;4.60;;
7477;SDS011;3780;42.424;25.636;2022-08-07T10:13:48;7.95;;;4.93;;
7477;SDS011;3780;42.424;25.636;2022-08-07T10:22:04;5.22;;;4.70;;
7477;SDS011;3780;42.424;25.636;2022-08-07T10:24:59;5.68;;;4.40;;
7477;SDS011;3780;42.424;25.636;2022-08-07T10:27:40;11.63;;;4.65;;
7477;SDS011;3780;42.424;25.636;2022-08-07T10:30:35;14.43;;;4.63;;
7477;SDS011;3780;42.424;25.636;2022-08-07T10:41:38;8.50;;;4.20;;
7477;SDS011;3780;42.424;25.636;2022-08-07T10:44:15;6.50;;;4.25;;
7477;SDS011;3780;42.424;25.636;2022-08-07T10:49:36;7.30;;;4.45;;
7477;SDS011;3780;42.424;25.636;2022-08-07T10:52:13;5.82;;;4.60;;
7477;SDS011;3780;42.424;25.636;2022-08-07T10:55:17;7.13;;;4.72;;
7477;SDS011;3780;42.424;25.636;2022-08-07T11:00:07;7.20;;;4.88;;
7477;SDS011;3780;42.424;25.636;2022-08-07T11:02:49;5.82;;;4.75;;
7477;SDS011;3780;42.424;25.636;2022-08-07T11:14:03;5.88;;;4.57;;
7477;SDS011;3780;42.424;25.636;2022-08-07T11:16:35;8.27;;;5.38;;
7477;SDS011;3780;42.424;25.636;2022-08-07T11:19:13;16.33;;;4.95;;
7477;SDS011;3780;42.424;25.636;2022-08-07T11:24:39;8.07;;;4.00;;
7477;SDS011;3780;42.424;25.636;2022-08-07T11:30:04;8.70;;;4.45;;
7477;SDS011;3780;42.424;25.636;2022-08-07T11:35:20;9.80;;;4.97;;
7477;SDS011;3780;42.424;25.636;2022-08-07T11:43:31;162.93;;;12.70;;
7477;SDS011;3780;42.424;25.636;2022-08-07T11:46:29;15.15;;;4.93;;
7477;SDS011;3780;42.424;25.636;2022-08-07T11:58:25;10.38;;;6.10;;
7477;SDS011;3780;42.424;25.636;2022-08-07T12:04:37;10.35;;;5.65;;
7477;SDS011;3780;42.424;25.636;2022-08-07T12:07:31;10.75;;;5.63;;
7477;SDS011;3780;42.424;25.636;2022-08-07T12:10:04;9.65;;;5.47;;
7477;SDS011;3780;42.424;25.636;2022-08-07T12:12:48;19.08;;;6.68;;
7477;SDS011;3780;42.424;25.636;2022-08-07T12:15:38;6.90;;;5.95;;
7477;SDS011;3780;42.424;25.636;2022-08-07T12:18:21;13.88;;;6.63;;
7477;SDS011;3780;42.424;25.636;2022-08-07T12:26:08;11.20;;;5.72;;
7477;SDS011;3780;42.424;25.636;2022-08-07T12:31:39;6.18;;;4.57;;
7477;SDS011;3780;42.424;25.636;2022-08-07T12:34:06;9.90;;;4.47;;
7477;SDS011;3780;42.424;25.636;2022-08-07T12:36:33;8.93;;;4.63;;
7477;SDS011;3780;42.424;25.636;2022-08-07T12:39:03;10.27;;;5.03;;
7477;SDS011;3780;42.424;25.636;2022-08-07T12:41:30;7.80;;;5.55;;
7477;SDS011;3780;42.424;25.636;2022-08-07T12:43:59;7.38;;;5.75;;
7477;SDS011;3780;42.424;25.636;2022-08-07T12:52:01;9.75;;;5.18;;
7477;SDS011;3780;42.424;25.636;2022-08-07T12:57:34;6.20;;;5.03;;
7477;SDS011;3780;42.424;25.636;2022-08-07T13:00:03;6.07;;;5.20;;
7477;SDS011;3780;42.424;25.636;2022-08-07T13:05:29;10.98;;;5.53;;
7477;SDS011;3780;42.424;25.636;2022-08-07T13:14:30;11.20;;;5.38;;
7477;SDS011;3780;42.424;25.636;2022-08-07T13:17:16;12.68;;;5.32;;
7477;SDS011;3780;42.424;25.636;2022-08-07T13:20:02;10.00;;;4.90;;
7477;SDS011;3780;42.424;25.636;2022-08-07T13:22:40;8.40;;;4.20;;
7477;SDS011;3780;42.424;25.636;2022-08-07T13:25:19;20.73;;;4.43;;
7477;SDS011;3780;42.424;25.636;2022-08-07T13:28:09;10.15;;;4.50;;
7477;SDS011;3780;42.424;25.636;2022-08-07T13:30:42;7.78;;;3.80;;
7477;SDS011;3780;42.424;25.636;2022-08-07T13:33:27;9.85;;;4.13;;
7477;SDS011;3780;42.424;25.636;2022-08-07T13:36:13;9.77;;;5.68;;
7477;SDS011;3780;42.424;25.636;2022-08-07T13:41:29;8.18;;;4.40;;
7477;SDS011;3780;42.424;25.636;2022-08-07T13:44:06;11.40;;;5.80;;
7477;SDS011;3780;42.424;25.636;2022-08-07T13:46:37;12.13;;;6.90;;
7477;SDS011;3780;42.424;25.636;2022-08-07T13:49:06;7.78;;;4.95;;
7477;SDS011;3780;42.424;25.636;2022-08-07T13:51:35;8.05;;;4.70;;
7477;SDS011;3780;42.424;25.636;2022-08-07T13:54:08;7.55;;;5.15;;
7477;SDS011;3780;42.424;25.636;2022-08-07T13:56:36;14.38;;;4.82;;
7477;SDS011;3780;42.424;25.636;2022-08-07T13:59:06;8.57;;;5.00;;
7477;SDS011;3780;42.424;25.636;2022-08-07T14:01:59;7.13;;;5.60;;
7477;SDS011;3780;42.424;25.636;2022-08-07T14:07:10;8.73;;;5.20;;
7477;SDS011;3780;42.424;25.636;2022-08-07T14:09:38;7.10;;;4.88;;
7477;SDS011;3780;42.424;25.636;2022-08-07T14:12:06;9.77;;;5.68;;
7477;SDS011;3780;42.424;25.636;2022-08-07T14:14:45;11.30;;;6.00;;
7477;SDS011;3780;42.424;25.636;2022-08-07T14:17:16;12.38;;;5.68;;
7477;SDS011;3780;42.424;25.636;2022-08-07T14:19:55;7.93;;;5.25;;
7477;SDS011;3780;42.424;25.636;2022-08-07T14:22:26;6.80;;;5.80;;
7477;SDS011;3780;42.424;25.636;2022-08-07T14:25:02;16.30;;;7.57;;
7477;SDS011;3780;42.424;25.636;2022-08-07T14:27:34;13.43;;;7.13;;
7477;SDS011;3780;42.424;25.636;2022-08-07T14:30:05;11.15;;;8.40;;
7477;SDS011;3780;42.424;25.636;2022-08-07T14:32:53;15.80;;;7.97;;
7477;SDS011;3780;42.424;25.636;2022-08-07T14:35:21;13.52;;;8.40;;
7477;SDS011;3780;42.424;25.636;2022-08-07T14:37:51;10.55;;;8.02;;
7477;SDS011;3780;42.424;25.636;2022-08-07T14:40:23;11.23;;;7.55;;
7477;SDS011;3780;42.424;25.636;2022-08-07T14:45:49;11.57;;;7.82;;
7477;SDS011;3780;42.424;25.636;2022-08-07T14:48:30;9.88;;;6.90;;
7477;SDS011;3780;42.424;25.636;2022-08-07T14:50:59;13.05;;;7.68;;
7477;SDS011;3780;42.424;25.636;2022-08-07T14:53:33;10.07;;;6.85;;
7477;SDS011;3780;42.424;25.636;2022-08-07T14:56:03;6.55;;;5.60;;
7477;SDS011;3780;42.424;25.636;2022-08-07T14:58:31;9.07;;;6.00;;
7477;SDS011;3780;42.424;25.636;2022-08-07T15:01:01;8.32;;;5.82;;
7477;SDS011;3780;42.424;25.636;2022-08-07T15:03:27;9.55;;;6.30;;
7477;SDS011;3780;42.424;25.636;2022-08-07T15:05:54;7.07;;;5.70;;
7477;SDS011;3780;42.424;25.636;2022-08-07T15:08:22;11.95;;;6.55;;
7477;SDS011;3780;42.424;25.636;2022-08-07T15:11:10;9.75;;;6.93;;
7477;SDS011;3780;42.424;25.636;2022-08-07T15:13:39;20.88;;;13.88;;
7477;SDS011;3780;42.424;25.636;2022-08-07T15:16:16;12.75;;;9.15;;
7477;SDS011;3780;42.424;25.636;2022-08-07T15:18:42;10.50;;;7.03;;
7477;SDS011;3780;42.424;25.636;2022-08-07T15:21:14;9.40;;;7.25;;
7477;SDS011;3780;42.424;25.636;2022-08-07T15:23:42;7.40;;;6.13;;
7477;SDS011;3780;42.424;25.636;2022-08-07T15:26:12;7.80;;;6.95;;
7477;SDS011;3780;42.424;25.636;2022-08-07T15:28:39;9.75;;;6.95;;
7477;SDS011;3780;42.424;25.636;2022-08-07T15:31:09;17.38;;;7.75;;
7477;SDS011;3780;42.424;25.636;2022-08-07T15:33:38;14.88;;;8.13;;
7477;SDS011;3780;42.424;25.636;2022-08-07T15:36:05;10.27;;;6.38;;
7477;SDS011;3780;42.424;25.636;2022-08-07T15:38:32;9.30;;;6.18;;
7477;SDS011;3780;42.424;25.636;2022-08-07T15:41:02;9.07;;;6.40;;
7477;SDS011;3780;42.424;25.636;2022-08-07T15:43:44;12.57;;;6.80;;
7477;SDS011;3780;42.424;25.636;2022-08-07T15:46:23;10.80;;;8.70;;
7477;SDS011;3780;42.424;25.636;2022-08-07T15:48:53;7.75;;;6.63;;
7477;SDS011;3780;42.424;25.636;2022-08-07T15:51:22;14.07;;;7.13;;
7477;SDS011;3780;42.424;25.636;2022-08-07T15:53:50;10.75;;;6.95;;
7477;SDS011;3780;42.424;25.636;2022-08-07T15:56:19;11.32;;;6.45;;
7477;SDS011;3780;42.424;25.636;2022-08-07T15:58:50;9.60;;;6.50;;
7477;SDS011;3780;42.424;25.636;2022-08-07T16:04:03;6.78;;;5.22;;
7477;SDS011;3780;42.424;25.636;2022-08-07T16:06:32;9.27;;;5.95;;
7477;SDS011;3780;42.424;25.636;2022-08-07T16:09:18;9.77;;;6.07;;
7477;SDS011;3780;42.424;25.636;2022-08-07T16:11:59;8.18;;;5.50;;
7477;SDS011;3780;42.424;25.636;2022-08-07T16:17:38;7.30;;;5.18;;
7477;SDS011;3780;42.424;25.636;2022-08-07T16:26:04;7.97;;;5.47;;
7477;SDS011;3780;42.424;25.636;2022-08-07T16:29:05;9.05;;;5.70;;
7477;SDS011;3780;42.424;25.636;2022-08-07T16:34:04;9.68;;;5.82;;
7477;SDS011;3780;42.424;25.636;2022-08-07T16:42:37;9.57;;;5.35;;
7477;SDS011;3780;42.424;25.636;2022-08-07T16:53:51;8.32;;;5.00;;
7477;SDS011;3780;42.424;25.636;2022-08-07T17:07:45;11.05;;;5.53;;
7477;SDS011;3780;42.424;25.636;2022-08-07T17:10:21;20.50;;;11.10;;
7477;SDS011;3780;42.424;25.636;2022-08-07T17:18:36;10.15;;;5.88;;
7477;SDS011;3780;42.424;25.636;2022-08-07T17:21:20;8.55;;;6.03;;
7477;SDS011;3780;42.424;25.636;2022-08-07T17:27:12;14.60;;;6.30;;
7477;SDS011;3780;42.424;25.636;2022-08-07T17:30:09;8.25;;;5.47;;
7477;SDS011;3780;42.424;25.636;2022-08-07T17:32:42;8.13;;;6.25;;
7477;SDS011;3780;42.424;25.636;2022-08-07T17:35:22;9.38;;;6.28;;
7477;SDS011;3780;42.424;25.636;2022-08-07T17:38:05;9.40;;;6.05;;
7477;SDS011;3780;42.424;25.636;2022-08-07T17:40:45;10.95;;;6.15;;
7477;SDS011;3780;42.424;25.636;2022-08-07T17:43:25;7.80;;;5.50;;
7477;SDS011;3780;42.424;25.636;2022-08-07T17:46:14;7.55;;;5.68;;
7477;SDS011;3780;42.424;25.636;2022-08-07T17:48:54;11.30;;;6.10;;
7477;SDS011;3780;42.424;25.636;2022-08-07T17:51:29;7.07;;;5.47;;
7477;SDS011;3780;42.424;25.636;2022-08-07T17:54:02;6.57;;;5.45;;
7477;SDS011;3780;42.424;25.636;2022-08-07T17:56:46;9.70;;;6.05;;
7477;SDS011;3780;42.424;25.636;2022-08-07T17:59:34;8.88;;;5.40;;
7477;SDS011;3780;42.424;25.636;2022-08-07T18:16:02;7.40;;;6.03;;
7477;SDS011;3780;42.424;25.636;2022-08-07T18:18:42;10.38;;;7.18;;
7477;SDS011;3780;42.424;25.636;2022-08-07T18:21:26;9.88;;;7.35;;
7477;SDS011;3780;42.424;25.636;2022-08-07T18:26:45;6.75;;;5.50;;
7477;SDS011;3780;42.424;25.636;2022-08-07T18:29:52;8.35;;;5.82;;
7477;SDS011;3780;42.424;25.636;2022-08-07T18:38:01;9.68;;;5.97;;
7477;SDS011;3780;42.424;25.636;2022-08-07T18:43:20;7.00;;;5.20;;
7477;SDS011;3780;42.424;25.636;2022-08-07T18:46:03;14.15;;;7.25;;
7477;SDS011;3780;42.424;25.636;2022-08-07T18:49:17;9.43;;;7.07;;
7477;SDS011;3780;42.424;25.636;2022-08-07T18:51:49;12.73;;;6.37;;
7477;SDS011;3780;42.424;25.636;2022-08-07T18:57:27;8.98;;;6.22;;
7477;SDS011;3780;42.424;25.636;2022-08-07T19:00:07;7.30;;;5.57;;
7477;SDS011;3780;42.424;25.636;2022-08-07T19:02:39;8.15;;;6.03;;
7477;SDS011;3780;42.424;25.636;2022-08-07T19:08:29;7.10;;;5.53;;
7477;SDS011;3780;42.424;25.636;2022-08-07T19:10:48;10.63;;;6.07;;